sensor_id;sensor_type;location;lat;lon;timestamp;P1;durP1;ratioP1;P2;durP2;ratioP2
15342;SDS011;7771;48.478;8.936;2022-08-11T00:00:18;2.40;;;1.93;;
15342;SDS011;7771;48.478;8.936;2022-08-11T00:02:46;3.00;;;1.77;;
15342;SDS011;7771;48.478;8.936;2022-08-11T00:05:13;3.43;;;2.40;;
15342;SDS011;7771;48.478;8.936;2022-08-11T00:07:41;3.80;;;1.73;;
15342;SDS011;7771;48.478;8.936;2022-08-11T00:10:11;3.57;;;2.00;;
15342;SDS011;7771;48.478;8.936;2022-08-11T00:12:37;2.53;;;2.10;;
15342;SDS011;7771;48.478;8.936;2022-08-11T00:15:04;3.20;;;2.17;;
15342;SDS011;7771;48.478;8.936;2022-08-11T00:17:31;4.30;;;2.20;;
15342;SDS011;7771;48.478;8.936;2022-08-11T00:20:02;2.60;;;1.90;;
15342;SDS011;7771;48.478;8.936;2022-08-11T00:22:27;2.27;;;2.00;;
15342;SDS011;7771;48.478;8.936;2022-08-11T00:24:54;2.63;;;2.10;;
15342;SDS011;7771;48.478;8.936;2022-08-11T00:27:30;4.80;;;2.03;;
15342;SDS011;7771;48.478;8.936;2022-08-11T00:29:52;2.57;;;2.30;;
15342;SDS011;7771;48.478;8.936;2022-08-11T00:32:19;2.50;;;2.17;;
15342;SDS011;7771;48.478;8.936;2022-08-11T00:34:45;2.57;;;1.90;;
15342;SDS011;7771;48.478;8.936;2022-08-11T00:37:17;2.30;;;2.10;;
15342;SDS011;7771;48.478;8.936;2022-08-11T00:39:43;3.93;;;2.33;;
15342;SDS011;7771;48.478;8.936;2022-08-11T00:42:22;3.73;;;2.00;;
15342;SDS011;7771;48.478;8.936;2022-08-11T00:45:00;2.23;;;2.00;;
15342;SDS011;7771;48.478;8.936;2022-08-11T00:55:26;4.07;;;2.00;;
15342;SDS011;7771;48.478;8.936;2022-08-11T00:58:04;2.30;;;1.93;;
15342;SDS011;7771;48.478;8.936;2022-08-11T01:00:25;2.40;;;2.13;;
15342;SDS011;7771;48.478;8.936;2022-08-11T01:03:00;3.67;;;2.03;;
15342;SDS011;7771;48.478;8.936;2022-08-11T01:05:47;2.77;;;2.30;;
15342;SDS011;7771;48.478;8.936;2022-08-11T01:08:27;4.40;;;1.90;;
15342;SDS011;7771;48.478;8.936;2022-08-11T01:10:53;2.53;;;2.10;;
15342;SDS011;7771;48.478;8.936;2022-08-11T01:16:10;3.50;;;2.17;;
15342;SDS011;7771;48.478;8.936;2022-08-11T01:18:43;2.77;;;2.57;;
15342;SDS011;7771;48.478;8.936;2022-08-11T01:24:00;2.43;;;2.20;;
15342;SDS011;7771;48.478;8.936;2022-08-11T01:29:12;3.17;;;2.20;;
15342;SDS011;7771;48.478;8.936;2022-08-11T01:31:41;3.93;;;2.53;;
15342;SDS011;7771;48.478;8.936;2022-08-11T01:39:55;2.80;;;2.00;;
15342;SDS011;7771;48.478;8.936;2022-08-11T01:42:58;2.47;;;2.13;;
15342;SDS011;7771;48.478;8.936;2022-08-11T01:45:29;3.17;;;2.47;;
15342;SDS011;7771;48.478;8.936;2022-08-11T01:48:18;2.13;;;1.93;;
15342;SDS011;7771;48.478;8.936;2022-08-11T01:53:46;2.73;;;2.30;;
15342;SDS011;7771;48.478;8.936;2022-08-11T01:56:33;3.17;;;2.87;;
15342;SDS011;7771;48.478;8.936;2022-08-11T02:01:37;2.77;;;2.10;;
15342;SDS011;7771;48.478;8.936;2022-08-11T02:12:26;2.97;;;2.43;;
15342;SDS011;7771;48.478;8.936;2022-08-11T02:14:53;2.97;;;2.67;;
15342;SDS011;7771;48.478;8.936;2022-08-11T02:17:19;3.13;;;2.60;;
15342;SDS011;7771;48.478;8.936;2022-08-11T02:19:50;3.60;;;2.57;;
15342;SDS011;7771;48.478;8.936;2022-08-11T02:22:45;2.50;;;2.30;;
15342;SDS011;7771;48.478;8.936;2022-08-11T02:27:49;3.50;;;2.57;;
15342;SDS011;7771;48.478;8.936;2022-08-11T02:30:15;5.50;;;2.30;;
15342;SDS011;7771;48.478;8.936;2022-08-11T02:32:49;2.67;;;2.47;;
15342;SDS011;7771;48.478;8.936;2022-08-11T02:35:25;2.67;;;2.40;;
15342;SDS011;7771;48.478;8.936;2022-08-11T02:40:43;2.77;;;2.57;;
15342;SDS011;7771;48.478;8.936;2022-08-11T02:43:12;5.03;;;2.73;;
15342;SDS011;7771;48.478;8.936;2022-08-11T02:45:44;3.80;;;2.40;;
15342;SDS011;7771;48.478;8.936;2022-08-11T02:48:49;2.60;;;2.40;;
15342;SDS011;7771;48.478;8.936;2022-08-11T02:51:00;4.10;;;2.90;;
15342;SDS011;7771;48.478;8.936;2022-08-11T02:53:25;2.57;;;2.37;;
15342;SDS011;7771;48.478;8.936;2022-08-11T02:55:53;2.93;;;2.70;;
15342;SDS011;7771;48.478;8.936;2022-08-11T02:58:54;4.03;;;2.93;;
15342;SDS011;7771;48.478;8.936;2022-08-11T03:01:12;3.80;;;2.80;;
15342;SDS011;7771;48.478;8.936;2022-08-11T03:03:43;4.23;;;2.87;;
15342;SDS011;7771;48.478;8.936;2022-08-11T03:06:19;3.97;;;2.30;;
15342;SDS011;7771;48.478;8.936;2022-08-11T03:08:52;2.97;;;2.57;;
15342;SDS011;7771;48.478;8.936;2022-08-11T03:11:23;4.03;;;2.60;;
15342;SDS011;7771;48.478;8.936;2022-08-11T03:14:14;3.47;;;2.60;;
15342;SDS011;7771;48.478;8.936;2022-08-11T03:16:52;3.30;;;2.87;;
15342;SDS011;7771;48.478;8.936;2022-08-11T03:19:25;3.43;;;3.00;;
15342;SDS011;7771;48.478;8.936;2022-08-11T03:22:12;3.87;;;3.30;;
15342;SDS011;7771;48.478;8.936;2022-08-11T03:24:59;3.60;;;2.73;;
15342;SDS011;7771;48.478;8.936;2022-08-11T03:27:31;3.10;;;2.80;;
15342;SDS011;7771;48.478;8.936;2022-08-11T03:31:09;4.20;;;3.10;;
15342;SDS011;7771;48.478;8.936;2022-08-11T03:33:07;3.27;;;2.73;;
15342;SDS011;7771;48.478;8.936;2022-08-11T03:36:12;3.43;;;2.70;;
15342;SDS011;7771;48.478;8.936;2022-08-11T03:38:42;4.53;;;2.90;;
15342;SDS011;7771;48.478;8.936;2022-08-11T03:41:18;3.00;;;2.70;;
15342;SDS011;7771;48.478;8.936;2022-08-11T03:44:03;4.93;;;3.13;;
15342;SDS011;7771;48.478;8.936;2022-08-11T03:46:55;4.40;;;3.10;;
15342;SDS011;7771;48.478;8.936;2022-08-11T03:49:26;5.20;;;3.30;;
15342;SDS011;7771;48.478;8.936;2022-08-11T03:52:10;4.63;;;2.73;;
15342;SDS011;7771;48.478;8.936;2022-08-11T03:55:07;3.90;;;3.37;;
15342;SDS011;7771;48.478;8.936;2022-08-11T03:57:41;4.60;;;2.93;;
15342;SDS011;7771;48.478;8.936;2022-08-11T04:03:08;5.63;;;3.10;;
15342;SDS011;7771;48.478;8.936;2022-08-11T04:05:43;3.30;;;2.73;;
15342;SDS011;7771;48.478;8.936;2022-08-11T04:08:17;3.10;;;2.80;;
15342;SDS011;7771;48.478;8.936;2022-08-11T04:11:07;3.30;;;3.00;;
15342;SDS011;7771;48.478;8.936;2022-08-11T04:13:34;3.33;;;3.03;;
15342;SDS011;7771;48.478;8.936;2022-08-11T04:19:04;3.17;;;2.87;;
15342;SDS011;7771;48.478;8.936;2022-08-11T04:21:47;4.70;;;3.07;;
15342;SDS011;7771;48.478;8.936;2022-08-11T04:32:30;3.40;;;3.07;;
15342;SDS011;7771;48.478;8.936;2022-08-11T04:35:07;3.70;;;3.10;;
15342;SDS011;7771;48.478;8.936;2022-08-11T04:37:48;4.07;;;2.93;;
15342;SDS011;7771;48.478;8.936;2022-08-11T04:40:38;3.70;;;3.40;;
15342;SDS011;7771;48.478;8.936;2022-08-11T04:44:15;3.87;;;3.57;;
15342;SDS011;7771;48.478;8.936;2022-08-11T04:45:50;5.20;;;3.10;;
15342;SDS011;7771;48.478;8.936;2022-08-11T04:48:37;3.40;;;3.10;;
15342;SDS011;7771;48.478;8.936;2022-08-11T04:51:13;3.70;;;3.30;;
15342;SDS011;7771;48.478;8.936;2022-08-11T04:53:59;3.60;;;3.30;;
15342;SDS011;7771;48.478;8.936;2022-08-11T04:56:30;3.40;;;3.10;;
15342;SDS011;7771;48.478;8.936;2022-08-11T04:59:11;5.23;;;3.20;;
15342;SDS011;7771;48.478;8.936;2022-08-11T05:02:09;4.73;;;3.13;;
15342;SDS011;7771;48.478;8.936;2022-08-11T05:04:47;5.70;;;3.10;;
15342;SDS011;7771;48.478;8.936;2022-08-11T05:07:42;3.67;;;3.27;;
15342;SDS011;7771;48.478;8.936;2022-08-11T05:10:17;5.60;;;3.40;;
15342;SDS011;7771;48.478;8.936;2022-08-11T05:12:56;6.13;;;3.23;;
15342;SDS011;7771;48.478;8.936;2022-08-11T05:15:32;4.00;;;3.30;;
15342;SDS011;7771;48.478;8.936;2022-08-11T05:18:13;3.07;;;2.87;;
15342;SDS011;7771;48.478;8.936;2022-08-11T05:20:45;4.20;;;3.23;;
15342;SDS011;7771;48.478;8.936;2022-08-11T05:23:18;3.70;;;3.30;;
15342;SDS011;7771;48.478;8.936;2022-08-11T05:25:51;5.80;;;3.40;;
15342;SDS011;7771;48.478;8.936;2022-08-11T05:28:32;3.40;;;3.10;;
15342;SDS011;7771;48.478;8.936;2022-08-11T05:31:08;3.47;;;3.17;;
15342;SDS011;7771;48.478;8.936;2022-08-11T05:33:44;5.27;;;3.27;;
15342;SDS011;7771;48.478;8.936;2022-08-11T05:36:16;3.50;;;3.20;;
15342;SDS011;7771;48.478;8.936;2022-08-11T05:38:41;4.37;;;3.10;;
15342;SDS011;7771;48.478;8.936;2022-08-11T05:41:14;4.20;;;3.80;;
15342;SDS011;7771;48.478;8.936;2022-08-11T05:43:47;3.70;;;3.40;;
15342;SDS011;7771;48.478;8.936;2022-08-11T05:46:19;3.13;;;2.77;;
15342;SDS011;7771;48.478;8.936;2022-08-11T05:48:52;3.40;;;3.10;;
15342;SDS011;7771;48.478;8.936;2022-08-11T05:51:32;3.63;;;3.20;;
15342;SDS011;7771;48.478;8.936;2022-08-11T05:53:58;4.17;;;3.37;;
15342;SDS011;7771;48.478;8.936;2022-08-11T05:56:30;4.23;;;3.83;;
15342;SDS011;7771;48.478;8.936;2022-08-11T05:58:57;4.37;;;3.30;;
15342;SDS011;7771;48.478;8.936;2022-08-11T06:01:26;4.83;;;3.63;;
15342;SDS011;7771;48.478;8.936;2022-08-11T06:03:52;3.90;;;3.00;;
15342;SDS011;7771;48.478;8.936;2022-08-11T06:06:25;5.07;;;3.33;;
15342;SDS011;7771;48.478;8.936;2022-08-11T06:08:54;3.03;;;2.70;;
15342;SDS011;7771;48.478;8.936;2022-08-11T06:11:21;3.47;;;3.17;;
15342;SDS011;7771;48.478;8.936;2022-08-11T06:13:48;4.40;;;3.53;;
15342;SDS011;7771;48.478;8.936;2022-08-11T06:16:19;4.40;;;3.50;;
15342;SDS011;7771;48.478;8.936;2022-08-11T06:18:46;5.77;;;3.20;;
15342;SDS011;7771;48.478;8.936;2022-08-11T06:21:12;3.20;;;2.90;;
15342;SDS011;7771;48.478;8.936;2022-08-11T06:23:39;3.50;;;3.20;;
15342;SDS011;7771;48.478;8.936;2022-08-11T06:26:08;4.67;;;3.23;;
15342;SDS011;7771;48.478;8.936;2022-08-11T06:28:35;4.10;;;3.27;;
15342;SDS011;7771;48.478;8.936;2022-08-11T06:31:02;3.73;;;3.37;;
15342;SDS011;7771;48.478;8.936;2022-08-11T06:33:32;3.50;;;3.17;;
15342;SDS011;7771;48.478;8.936;2022-08-11T06:36:04;2.97;;;2.63;;
15342;SDS011;7771;48.478;8.936;2022-08-11T06:38:36;4.30;;;2.90;;
15342;SDS011;7771;48.478;8.936;2022-08-11T06:41:03;3.40;;;3.00;;
15342;SDS011;7771;48.478;8.936;2022-08-11T06:43:56;3.50;;;3.00;;
15342;SDS011;7771;48.478;8.936;2022-08-11T06:46:24;4.20;;;2.97;;
15342;SDS011;7771;48.478;8.936;2022-08-11T06:48:48;5.33;;;3.40;;
15342;SDS011;7771;48.478;8.936;2022-08-11T06:51:14;3.97;;;3.37;;
15342;SDS011;7771;48.478;8.936;2022-08-11T06:53:43;3.53;;;3.17;;
15342;SDS011;7771;48.478;8.936;2022-08-11T06:56:23;4.87;;;3.43;;
15342;SDS011;7771;48.478;8.936;2022-08-11T06:58:55;3.33;;;3.03;;
15342;SDS011;7771;48.478;8.936;2022-08-11T07:01:32;3.25;;;2.92;;
15342;SDS011;7771;48.478;8.936;2022-08-11T07:03:57;4.60;;;3.23;;
15342;SDS011;7771;48.478;8.936;2022-08-11T07:09:14;5.25;;;3.22;;
15342;SDS011;7771;48.478;8.936;2022-08-11T07:14:26;3.05;;;2.65;;
15342;SDS011;7771;48.478;8.936;2022-08-11T07:16:59;2.78;;;2.40;;
15342;SDS011;7771;48.478;8.936;2022-08-11T07:19:27;3.83;;;3.05;;
15342;SDS011;7771;48.478;8.936;2022-08-11T07:21:59;5.97;;;2.62;;
15342;SDS011;7771;48.478;8.936;2022-08-11T07:24:48;4.15;;;2.42;;
15342;SDS011;7771;48.478;8.936;2022-08-11T07:27:36;2.90;;;2.40;;
15342;SDS011;7771;48.478;8.936;2022-08-11T07:30:09;4.53;;;2.15;;
15342;SDS011;7771;48.478;8.936;2022-08-11T07:32:36;4.05;;;2.10;;
15342;SDS011;7771;48.478;8.936;2022-08-11T07:35:08;2.45;;;2.08;;
15342;SDS011;7771;48.478;8.936;2022-08-11T07:37:34;3.62;;;1.92;;
15342;SDS011;7771;48.478;8.936;2022-08-11T07:40:01;2.33;;;2.10;;
15342;SDS011;7771;48.478;8.936;2022-08-11T07:42:29;4.30;;;2.00;;
15342;SDS011;7771;48.478;8.936;2022-08-11T07:44:55;2.37;;;1.90;;
15342;SDS011;7771;48.478;8.936;2022-08-11T07:47:27;3.85;;;2.00;;
15342;SDS011;7771;48.478;8.936;2022-08-11T07:49:59;2.30;;;2.10;;
15342;SDS011;7771;48.478;8.936;2022-08-11T07:52:32;2.87;;;2.00;;
15342;SDS011;7771;48.478;8.936;2022-08-11T07:54:59;2.17;;;1.80;;
15342;SDS011;7771;48.478;8.936;2022-08-11T07:57:25;2.65;;;2.15;;
15342;SDS011;7771;48.478;8.936;2022-08-11T07:59:57;3.28;;;2.20;;
15342;SDS011;7771;48.478;8.936;2022-08-11T08:02:29;5.57;;;2.00;;
15342;SDS011;7771;48.478;8.936;2022-08-11T08:05:02;3.72;;;2.35;;
15342;SDS011;7771;48.478;8.936;2022-08-11T08:07:34;3.70;;;2.12;;
15342;SDS011;7771;48.478;8.936;2022-08-11T08:10:07;2.58;;;2.03;;
15342;SDS011;7771;48.478;8.936;2022-08-11T08:12:39;1.92;;;1.65;;
15342;SDS011;7771;48.478;8.936;2022-08-11T08:15:13;2.47;;;2.20;;
15342;SDS011;7771;48.478;8.936;2022-08-11T08:17:44;3.92;;;2.85;;
15342;SDS011;7771;48.478;8.936;2022-08-11T08:20:19;3.12;;;2.60;;
15342;SDS011;7771;48.478;8.936;2022-08-11T08:22:52;3.90;;;2.65;;
15342;SDS011;7771;48.478;8.936;2022-08-11T08:25:19;4.45;;;2.17;;
15342;SDS011;7771;48.478;8.936;2022-08-11T08:27:46;2.45;;;2.25;;
15342;SDS011;7771;48.478;8.936;2022-08-11T08:30:13;2.70;;;2.50;;
15342;SDS011;7771;48.478;8.936;2022-08-11T08:32:55;2.92;;;2.62;;
15342;SDS011;7771;48.478;8.936;2022-08-11T08:35:23;6.37;;;2.58;;
15342;SDS011;7771;48.478;8.936;2022-08-11T08:37:50;3.55;;;2.45;;
15342;SDS011;7771;48.478;8.936;2022-08-11T08:40:17;4.97;;;2.40;;
15342;SDS011;7771;48.478;8.936;2022-08-11T08:42:46;5.28;;;2.20;;
15342;SDS011;7771;48.478;8.936;2022-08-11T08:45:12;3.03;;;2.30;;
15342;SDS011;7771;48.478;8.936;2022-08-11T08:47:40;3.45;;;2.90;;
15342;SDS011;7771;48.478;8.936;2022-08-11T08:50:09;2.95;;;2.33;;
15342;SDS011;7771;48.478;8.936;2022-08-11T08:52:37;3.10;;;2.03;;
15342;SDS011;7771;48.478;8.936;2022-08-11T08:55:03;2.67;;;2.33;;
15342;SDS011;7771;48.478;8.936;2022-08-11T08:57:30;5.72;;;2.62;;
15342;SDS011;7771;48.478;8.936;2022-08-11T08:59:57;2.50;;;2.10;;
15342;SDS011;7771;48.478;8.936;2022-08-11T09:02:25;2.20;;;2.00;;
15342;SDS011;7771;48.478;8.936;2022-08-11T09:04:51;4.85;;;2.47;;
15342;SDS011;7771;48.478;8.936;2022-08-11T09:07:19;2.50;;;2.25;;
15342;SDS011;7771;48.478;8.936;2022-08-11T09:09:46;3.12;;;2.65;;
15342;SDS011;7771;48.478;8.936;2022-08-11T09:12:13;3.40;;;2.33;;
15342;SDS011;7771;48.478;8.936;2022-08-11T09:14:41;3.33;;;2.20;;
15342;SDS011;7771;48.478;8.936;2022-08-11T09:17:12;3.53;;;2.12;;
15342;SDS011;7771;48.478;8.936;2022-08-11T09:19:39;2.35;;;2.15;;
15342;SDS011;7771;48.478;8.936;2022-08-11T09:22:06;4.05;;;2.00;;
15342;SDS011;7771;48.478;8.936;2022-08-11T09:24:38;3.83;;;2.30;;
15342;SDS011;7771;48.478;8.936;2022-08-11T09:27:10;3.92;;;2.20;;
15342;SDS011;7771;48.478;8.936;2022-08-11T09:29:37;2.75;;;2.33;;
15342;SDS011;7771;48.478;8.936;2022-08-11T09:32:05;2.90;;;2.10;;
15342;SDS011;7771;48.478;8.936;2022-08-11T09:34:32;3.95;;;2.55;;
15342;SDS011;7771;48.478;8.936;2022-08-11T09:36:59;4.25;;;2.00;;
15342;SDS011;7771;48.478;8.936;2022-08-11T09:39:44;2.10;;;1.90;;
15342;SDS011;7771;48.478;8.936;2022-08-11T09:42:17;2.70;;;2.33;;
15342;SDS011;7771;48.478;8.936;2022-08-11T09:44:43;3.70;;;2.53;;
15342;SDS011;7771;48.478;8.936;2022-08-11T09:47:18;4.70;;;2.70;;
15342;SDS011;7771;48.478;8.936;2022-08-11T09:49:44;5.15;;;2.95;;
15342;SDS011;7771;48.478;8.936;2022-08-11T09:52:11;5.72;;;3.37;;
15342;SDS011;7771;48.478;8.936;2022-08-11T09:54:39;3.33;;;2.25;;
15342;SDS011;7771;48.478;8.936;2022-08-11T09:57:06;3.97;;;1.90;;
15342;SDS011;7771;48.478;8.936;2022-08-11T09:59:38;4.80;;;2.47;;
15342;SDS011;7771;48.478;8.936;2022-08-11T10:02:06;2.53;;;2.03;;
15342;SDS011;7771;48.478;8.936;2022-08-11T10:04:35;2.50;;;2.20;;
15342;SDS011;7771;48.478;8.936;2022-08-11T10:07:03;3.17;;;2.45;;
15342;SDS011;7771;48.478;8.936;2022-08-11T10:09:38;4.53;;;2.10;;
15342;SDS011;7771;48.478;8.936;2022-08-11T10:12:08;3.10;;;2.33;;
15342;SDS011;7771;48.478;8.936;2022-08-11T10:14:33;4.68;;;2.03;;
15342;SDS011;7771;48.478;8.936;2022-08-11T10:17:06;2.78;;;2.03;;
15342;SDS011;7771;48.478;8.936;2022-08-11T10:19:32;2.87;;;2.00;;
15342;SDS011;7771;48.478;8.936;2022-08-11T10:21:58;2.10;;;1.77;;
15342;SDS011;7771;48.478;8.936;2022-08-11T10:24:31;1.73;;;1.62;;
15342;SDS011;7771;48.478;8.936;2022-08-11T10:27:03;3.87;;;2.00;;
15342;SDS011;7771;48.478;8.936;2022-08-11T10:29:30;3.80;;;2.25;;
15342;SDS011;7771;48.478;8.936;2022-08-11T10:32:02;3.42;;;1.92;;
15342;SDS011;7771;48.478;8.936;2022-08-11T10:34:35;5.03;;;2.75;;
15342;SDS011;7771;48.478;8.936;2022-08-11T10:37:01;2.83;;;2.10;;
15342;SDS011;7771;48.478;8.936;2022-08-11T10:39:29;2.85;;;2.20;;
15342;SDS011;7771;48.478;8.936;2022-08-11T10:41:56;2.60;;;2.12;;
15342;SDS011;7771;48.478;8.936;2022-08-11T10:44:29;2.00;;;1.80;;
15342;SDS011;7771;48.478;8.936;2022-08-11T10:46:55;2.25;;;1.70;;
15342;SDS011;7771;48.478;8.936;2022-08-11T10:49:27;2.30;;;1.95;;
15342;SDS011;7771;48.478;8.936;2022-08-11T10:51:54;5.40;;;2.72;;
15342;SDS011;7771;48.478;8.936;2022-08-11T10:54:26;3.72;;;2.58;;
15342;SDS011;7771;48.478;8.936;2022-08-11T10:56:59;3.55;;;2.70;;
15342;SDS011;7771;48.478;8.936;2022-08-11T10:59:31;2.42;;;1.83;;
15342;SDS011;7771;48.478;8.936;2022-08-11T11:01:58;2.87;;;2.30;;
15342;SDS011;7771;48.478;8.936;2022-08-11T11:04:27;2.92;;;1.70;;
15342;SDS011;7771;48.478;8.936;2022-08-11T11:06:57;6.45;;;3.67;;
15342;SDS011;7771;48.478;8.936;2022-08-11T11:09:41;2.50;;;2.30;;
15342;SDS011;7771;48.478;8.936;2022-08-11T11:12:19;3.67;;;1.87;;
15342;SDS011;7771;48.478;8.936;2022-08-11T11:14:56;2.40;;;2.08;;
15342;SDS011;7771;48.478;8.936;2022-08-11T11:17:29;2.67;;;2.15;;
15342;SDS011;7771;48.478;8.936;2022-08-11T11:20:04;1.60;;;1.50;;
15342;SDS011;7771;48.478;8.936;2022-08-11T11:22:31;2.47;;;2.12;;
15342;SDS011;7771;48.478;8.936;2022-08-11T11:30:36;2.55;;;2.05;;
15342;SDS011;7771;48.478;8.936;2022-08-11T11:33:20;2.00;;;1.80;;
15342;SDS011;7771;48.478;8.936;2022-08-11T11:35:47;2.42;;;2.20;;
15342;SDS011;7771;48.478;8.936;2022-08-11T11:38:10;2.08;;;1.87;;
15342;SDS011;7771;48.478;8.936;2022-08-11T11:40:38;2.92;;;2.65;;
15342;SDS011;7771;48.478;8.936;2022-08-11T11:43:04;3.08;;;2.70;;
15342;SDS011;7771;48.478;8.936;2022-08-11T11:45:31;2.00;;;1.80;;
15342;SDS011;7771;48.478;8.936;2022-08-11T11:47:58;3.30;;;2.10;;
15342;SDS011;7771;48.478;8.936;2022-08-11T11:50:25;2.40;;;1.85;;
15342;SDS011;7771;48.478;8.936;2022-08-11T11:52:53;2.22;;;1.90;;
15342;SDS011;7771;48.478;8.936;2022-08-11T11:55:20;4.47;;;2.65;;
15342;SDS011;7771;48.478;8.936;2022-08-11T11:57:46;2.25;;;1.80;;
15342;SDS011;7771;48.478;8.936;2022-08-11T12:00:19;1.50;;;1.40;;
15342;SDS011;7771;48.478;8.936;2022-08-11T12:02:51;2.25;;;1.60;;
15342;SDS011;7771;48.478;8.936;2022-08-11T12:05:18;2.42;;;1.45;;
15342;SDS011;7771;48.478;8.936;2022-08-11T12:07:45;2.20;;;2.00;;
15342;SDS011;7771;48.478;8.936;2022-08-11T12:10:18;2.03;;;1.58;;
15342;SDS011;7771;48.478;8.936;2022-08-11T12:12:45;3.90;;;1.60;;
15342;SDS011;7771;48.478;8.936;2022-08-11T12:15:18;2.85;;;1.98;;
15342;SDS011;7771;48.478;8.936;2022-08-11T12:17:46;2.22;;;1.42;;
15342;SDS011;7771;48.478;8.936;2022-08-11T12:20:15;2.67;;;1.83;;
15342;SDS011;7771;48.478;8.936;2022-08-11T12:22:40;5.03;;;1.75;;
15342;SDS011;7771;48.478;8.936;2022-08-11T12:25:14;1.70;;;1.60;;
15342;SDS011;7771;48.478;8.936;2022-08-11T12:27:46;2.62;;;1.90;;
15342;SDS011;7771;48.478;8.936;2022-08-11T12:30:13;4.55;;;1.80;;
15342;SDS011;7771;48.478;8.936;2022-08-11T12:32:41;2.25;;;1.50;;
15342;SDS011;7771;48.478;8.936;2022-08-11T12:35:07;2.22;;;1.58;;
15342;SDS011;7771;48.478;8.936;2022-08-11T12:37:36;2.62;;;1.60;;
15342;SDS011;7771;48.478;8.936;2022-08-11T12:40:04;2.03;;;1.75;;
15342;SDS011;7771;48.478;8.936;2022-08-11T12:42:36;5.03;;;1.77;;
15342;SDS011;7771;48.478;8.936;2022-08-11T12:45:10;3.58;;;1.60;;
15342;SDS011;7771;48.478;8.936;2022-08-11T12:47:45;2.50;;;1.55;;
15342;SDS011;7771;48.478;8.936;2022-08-11T12:50:25;2.17;;;1.98;;
15342;SDS011;7771;48.478;8.936;2022-08-11T12:52:58;1.62;;;1.50;;
15342;SDS011;7771;48.478;8.936;2022-08-11T12:55:25;2.42;;;2.03;;
15342;SDS011;7771;48.478;8.936;2022-08-11T12:57:57;3.83;;;1.70;;
15342;SDS011;7771;48.478;8.936;2022-08-11T13:00:30;3.47;;;1.60;;
15342;SDS011;7771;48.478;8.936;2022-08-11T13:03:04;4.15;;;1.83;;
15342;SDS011;7771;48.478;8.936;2022-08-11T13:05:35;2.08;;;1.33;;
15342;SDS011;7771;48.478;8.936;2022-08-11T13:08:02;1.48;;;1.37;;
15342;SDS011;7771;48.478;8.936;2022-08-11T13:10:30;3.03;;;1.30;;
15342;SDS011;7771;48.478;8.936;2022-08-11T13:13:02;2.72;;;1.37;;
15342;SDS011;7771;48.478;8.936;2022-08-11T13:15:29;2.08;;;1.70;;
15342;SDS011;7771;48.478;8.936;2022-08-11T13:17:56;1.60;;;1.50;;
15342;SDS011;7771;48.478;8.936;2022-08-11T13:20:24;3.42;;;1.55;;
15342;SDS011;7771;48.478;8.936;2022-08-11T13:22:52;3.00;;;1.80;;
15342;SDS011;7771;48.478;8.936;2022-08-11T13:25:20;2.60;;;2.10;;
15342;SDS011;7771;48.478;8.936;2022-08-11T13:27:46;2.67;;;1.50;;
15342;SDS011;7771;48.478;8.936;2022-08-11T13:30:13;5.75;;;3.30;;
15342;SDS011;7771;48.478;8.936;2022-08-11T13:32:45;4.85;;;1.60;;
15342;SDS011;7771;48.478;8.936;2022-08-11T13:35:12;3.53;;;1.42;;
15342;SDS011;7771;48.478;8.936;2022-08-11T13:37:38;2.17;;;1.60;;
15342;SDS011;7771;48.478;8.936;2022-08-11T13:40:05;3.17;;;1.60;;
15342;SDS011;7771;48.478;8.936;2022-08-11T13:42:32;2.87;;;1.50;;
15342;SDS011;7771;48.478;8.936;2022-08-11T13:44:59;2.40;;;1.40;;
15342;SDS011;7771;48.478;8.936;2022-08-11T13:47:27;3.22;;;1.48;;
15342;SDS011;7771;48.478;8.936;2022-08-11T13:49:54;1.75;;;1.45;;
15342;SDS011;7771;48.478;8.936;2022-08-11T13:52:21;2.40;;;1.80;;
15342;SDS011;7771;48.478;8.936;2022-08-11T13:54:49;2.55;;;1.92;;
15342;SDS011;7771;48.478;8.936;2022-08-11T13:57:16;3.15;;;1.45;;
15342;SDS011;7771;48.478;8.936;2022-08-11T13:59:43;3.17;;;1.33;;
15342;SDS011;7771;48.478;8.936;2022-08-11T14:02:12;2.28;;;1.60;;
15342;SDS011;7771;48.478;8.936;2022-08-11T14:04:45;3.12;;;1.60;;
15342;SDS011;7771;48.478;8.936;2022-08-11T14:07:10;1.52;;;1.37;;
15342;SDS011;7771;48.478;8.936;2022-08-11T14:09:38;1.73;;;1.55;;
15342;SDS011;7771;48.478;8.936;2022-08-11T14:12:06;2.33;;;1.95;;
15342;SDS011;7771;48.478;8.936;2022-08-11T14:14:51;2.45;;;1.55;;
15342;SDS011;7771;48.478;8.936;2022-08-11T14:17:17;3.50;;;1.75;;
15342;SDS011;7771;48.478;8.936;2022-08-11T14:19:44;2.10;;;1.80;;
15342;SDS011;7771;48.478;8.936;2022-08-11T14:22:10;1.70;;;1.60;;
15342;SDS011;7771;48.478;8.936;2022-08-11T14:24:39;2.80;;;1.60;;
15342;SDS011;7771;48.478;8.936;2022-08-11T14:27:06;2.10;;;1.77;;
15342;SDS011;7771;48.478;8.936;2022-08-11T14:29:32;5.65;;;1.70;;
15342;SDS011;7771;48.478;8.936;2022-08-11T14:32:00;2.40;;;1.60;;
15342;SDS011;7771;48.478;8.936;2022-08-11T14:34:27;2.50;;;1.90;;
15342;SDS011;7771;48.478;8.936;2022-08-11T14:36:56;1.70;;;1.60;;
15342;SDS011;7771;48.478;8.936;2022-08-11T14:39:24;3.40;;;1.62;;
15342;SDS011;7771;48.478;8.936;2022-08-11T14:41:53;2.90;;;1.73;;
15342;SDS011;7771;48.478;8.936;2022-08-11T14:44:25;3.20;;;2.00;;
15342;SDS011;7771;48.478;8.936;2022-08-11T14:46:57;2.45;;;1.70;;
15342;SDS011;7771;48.478;8.936;2022-08-11T14:49:33;2.15;;;1.50;;
15342;SDS011;7771;48.478;8.936;2022-08-11T14:51:58;1.95;;;1.70;;
15342;SDS011;7771;48.478;8.936;2022-08-11T14:54:25;1.60;;;1.50;;
15342;SDS011;7771;48.478;8.936;2022-08-11T14:56:57;1.67;;;1.37;;
15342;SDS011;7771;48.478;8.936;2022-08-11T14:59:25;1.80;;;1.70;;
15342;SDS011;7771;48.478;8.936;2022-08-11T15:01:52;1.92;;;1.73;;
15342;SDS011;7771;48.478;8.936;2022-08-11T15:04:25;2.03;;;1.90;;
15342;SDS011;7771;48.478;8.936;2022-08-11T15:06:52;2.22;;;1.60;;
15342;SDS011;7771;48.478;8.936;2022-08-11T15:09:18;2.28;;;1.90;;
15342;SDS011;7771;48.478;8.936;2022-08-11T15:11:45;3.47;;;1.70;;
15342;SDS011;7771;48.478;8.936;2022-08-11T15:14:18;1.73;;;1.62;;
15342;SDS011;7771;48.478;8.936;2022-08-11T15:16:45;3.75;;;1.70;;
15342;SDS011;7771;48.478;8.936;2022-08-11T15:19:18;1.95;;;1.60;;
15342;SDS011;7771;48.478;8.936;2022-08-11T15:21:45;4.78;;;1.87;;
15342;SDS011;7771;48.478;8.936;2022-08-11T15:24:18;2.22;;;1.67;;
15342;SDS011;7771;48.478;8.936;2022-08-11T15:26:45;2.15;;;1.73;;
15342;SDS011;7771;48.478;8.936;2022-08-11T15:29:19;4.80;;;2.62;;
15342;SDS011;7771;48.478;8.936;2022-08-11T15:31:50;2.47;;;2.00;;
15342;SDS011;7771;48.478;8.936;2022-08-11T15:34:24;2.28;;;1.90;;
15342;SDS011;7771;48.478;8.936;2022-08-11T15:36:57;2.30;;;2.10;;
15342;SDS011;7771;48.478;8.936;2022-08-11T15:39:31;4.25;;;1.80;;
15342;SDS011;7771;48.478;8.936;2022-08-11T15:41:58;2.65;;;2.10;;
15342;SDS011;7771;48.478;8.936;2022-08-11T15:44:32;2.20;;;2.00;;
15342;SDS011;7771;48.478;8.936;2022-08-11T15:47:04;2.15;;;1.80;;
15342;SDS011;7771;48.478;8.936;2022-08-11T15:49:32;2.50;;;1.77;;
15342;SDS011;7771;48.478;8.936;2022-08-11T15:52:01;2.47;;;2.08;;
15342;SDS011;7771;48.478;8.936;2022-08-11T15:54:26;2.10;;;1.87;;
15342;SDS011;7771;48.478;8.936;2022-08-11T15:56:52;2.05;;;1.80;;
15342;SDS011;7771;48.478;8.936;2022-08-11T15:59:18;4.20;;;1.87;;
15342;SDS011;7771;48.478;8.936;2022-08-11T16:01:52;2.15;;;1.90;;
15342;SDS011;7771;48.478;8.936;2022-08-11T16:04:24;2.65;;;1.87;;
15342;SDS011;7771;48.478;8.936;2022-08-11T16:06:54;3.30;;;2.20;;
15342;SDS011;7771;48.478;8.936;2022-08-11T16:09:27;3.35;;;2.00;;
15342;SDS011;7771;48.478;8.936;2022-08-11T16:11:52;2.15;;;1.60;;
15342;SDS011;7771;48.478;8.936;2022-08-11T16:14:19;2.12;;;1.70;;
15342;SDS011;7771;48.478;8.936;2022-08-11T16:16:53;5.00;;;1.90;;
15342;SDS011;7771;48.478;8.936;2022-08-11T16:19:19;2.90;;;1.90;;
15342;SDS011;7771;48.478;8.936;2022-08-11T16:21:46;5.50;;;2.40;;
15342;SDS011;7771;48.478;8.936;2022-08-11T16:24:12;3.30;;;2.20;;
15342;SDS011;7771;48.478;8.936;2022-08-11T16:26:40;2.83;;;2.50;;
15342;SDS011;7771;48.478;8.936;2022-08-11T16:29:06;2.83;;;1.90;;
15342;SDS011;7771;48.478;8.936;2022-08-11T16:31:32;4.60;;;2.75;;